createdAt,value
2023-04-15T00:02:18.676Z,5.20
2023-04-15T00:03:47.931Z,6.10
2023-04-15T00:12:03.532Z,4.90
2023-04-15T00:13:32.876Z,5.50
2023-04-15T00:15:59.512Z,5.40
2023-04-15T00:18:26.433Z,5.50
2023-04-15T00:22:21.683Z,5.10
2023-04-15T00:28:41.561Z,5.90
2023-04-15T00:31:08.578Z,5.10
2023-04-15T00:36:00.712Z,5.40
2023-04-15T00:37:29.718Z,5.70
2023-04-15T00:39:27.702Z,5.20
2023-04-15T00:42:23.941Z,5.40
2023-04-15T00:43:52.946Z,5.00
2023-04-15T00:45:51.135Z,5.30
2023-04-15T00:48:18.455Z,6.00
2023-04-15T00:49:47.406Z,6.00
2023-04-15T00:52:14.529Z,5.40
2023-04-15T00:53:43.522Z,5.60
2023-04-15T00:55:12.548Z,6.30
2023-04-15T00:57:39.648Z,5.70
2023-04-15T01:00:35.812Z,6.30
2023-04-15T01:04:29.882Z,6.10
2023-04-15T01:06:56.819Z,5.60
2023-04-15T01:15:42.515Z,5.30
2023-04-15T01:22:01.636Z,6.40
2023-04-15T01:32:12.900Z,6.40
2023-04-15T01:35:08.976Z,6.10
2023-04-15T01:39:32.063Z,5.90
2023-04-15T01:41:01.238Z,6.30
2023-04-15T01:44:55.300Z,6.50
2023-04-15T01:49:47.421Z,7.20
2023-04-15T01:51:45.414Z,6.70
2023-04-15T01:55:10.481Z,6.20
2023-04-15T01:58:35.576Z,6.80
2023-04-15T02:00:33.629Z,6.40
2023-04-15T02:02:31.655Z,6.70
2023-04-15T02:09:19.931Z,7.00
2023-04-15T02:15:10.670Z,7.00
2023-04-15T02:16:39.692Z,6.80
2023-04-15T02:20:34.106Z,7.00
2023-04-15T02:23:30.357Z,7.40
2023-04-15T02:32:44.351Z,7.30
2023-04-15T02:39:03.894Z,6.90
2023-04-15T02:41:59.822Z,7.20
2023-04-15T02:47:22.065Z,8.10
2023-04-15T02:51:16.316Z,6.80
2023-04-15T02:55:10.204Z,7.30
2023-04-15T03:03:25.739Z,8.00
2023-04-15T03:04:54.715Z,8.00
2023-04-15T03:09:47.607Z,7.20
2023-04-15T03:12:42.876Z,7.90
2023-04-15T03:14:11.903Z,7.60
2023-04-15T03:19:04.381Z,7.70
2023-04-15T03:20:33.437Z,7.40
2023-04-15T03:22:02.358Z,7.80
2023-04-15T03:25:27.568Z,6.90
2023-04-15T03:40:00.660Z,8.30
2023-04-15T03:47:18.045Z,8.30
2023-04-15T03:48:47.019Z,8.70
2023-04-15T03:55:35.053Z,8.80
2023-04-15T03:59:29.462Z,8.70
2023-04-15T04:05:48.553Z,8.50
2023-04-15T04:07:17.550Z,8.20
2023-04-15T04:12:09.680Z,8.30
2023-04-15T04:16:03.821Z,9.10
2023-04-15T04:27:41.923Z,8.90
2023-04-15T04:29:40.073Z,8.80
2023-04-15T04:31:08.974Z,9.90
2023-04-15T04:35:03.502Z,9.20
2023-04-15T04:39:55.891Z,8.10
2023-04-15T04:42:22.654Z,8.70
2023-04-15T04:46:16.926Z,8.50
2023-04-15T04:47:45.896Z,8.90
2023-04-15T04:51:11.111Z,8.80
2023-04-15T05:02:50.562Z,9.70
2023-04-15T05:04:19.457Z,9.60
2023-04-15T05:13:32.556Z,10.10
2023-04-15T05:15:30.838Z,9.50
2023-04-15T05:17:58.354Z,9.30
2023-04-15T05:20:54.134Z,9.80
2023-04-15T05:24:48.577Z,10.50
2023-04-15T05:28:13.609Z,10.50
2023-04-15T05:31:09.819Z,10.10
2023-04-15T05:34:35.059Z,10.00
2023-04-15T05:37:02.098Z,10.10
2023-04-15T05:38:31.014Z,10.90
2023-04-15T05:40:29.173Z,10.70
2023-04-15T05:44:52.770Z,10.20
2023-04-15T05:46:21.857Z,11.00
2023-04-15T05:49:47.334Z,11.50
2023-04-15T05:52:43.665Z,11.20
2023-04-15T05:55:39.873Z,11.60
2023-04-15T06:00:32.709Z,12.00
2023-04-15T06:10:44.044Z,14.10
2023-04-15T06:15:07.002Z,13.90
2023-04-15T06:17:34.095Z,13.70
2023-04-15T06:20:01.071Z,13.80
2023-04-15T06:22:57.942Z,13.30
2023-04-15T06:27:21.077Z,13.90
2023-04-15T06:29:48.463Z,13.90
2023-04-15T06:31:46.538Z,13.80
2023-04-15T06:34:13.630Z,13.40
2023-04-15T06:36:02.551Z,14.00
2023-04-15T06:38:58.539Z,13.20
2023-04-15T06:40:27.518Z,12.80
2023-04-15T06:43:23.699Z,13.60
2023-04-15T06:44:52.651Z,13.30
2023-04-15T06:49:45.411Z,11.90
2023-04-15T06:52:41.370Z,12.60
2023-04-15T06:55:37.526Z,12.10
2023-04-15T07:00:00.899Z,12.40
2023-04-15T07:01:30.033Z,12.40
2023-04-15T07:08:48.194Z,11.90
2023-04-15T07:13:11.381Z,13.10
2023-04-15T07:16:12.128Z,14.10
2023-04-15T07:23:00.644Z,13.40
2023-04-15T07:33:41.604Z,13.20
2023-04-15T07:36:08.868Z,13.60
2023-04-15T07:43:55.737Z,11.80
2023-04-15T07:53:09.105Z,12.50
2023-04-15T07:55:06.952Z,12.80
2023-04-15T08:05:09.466Z,12.70
2023-04-15T08:08:05.792Z,12.00
2023-04-15T08:13:27.435Z,10.40
2023-04-15T08:14:56.724Z,11.30
2023-04-15T08:20:47.022Z,11.60
2023-04-15T08:23:43.133Z,11.20
2023-04-15T08:26:39.326Z,10.50
2023-04-15T08:32:58.633Z,10.50
2023-04-15T08:37:22.146Z,9.90
2023-04-15T08:39:49.185Z,9.40
2023-04-15T08:41:47.152Z,9.60
2023-04-15T08:50:32.062Z,9.70
2023-04-15T08:52:59.076Z,8.70
2023-04-15T08:56:24.297Z,8.50
2023-04-15T08:59:20.304Z,8.30
2023-04-15T09:05:10.863Z,8.90
2023-04-15T09:09:34.205Z,8.20
2023-04-15T09:18:19.101Z,7.40
2023-04-15T09:28:02.363Z,6.80
2023-04-15T09:30:00.300Z,7.30
2023-04-15T09:32:27.569Z,7.00
2023-04-15T09:33:56.681Z,6.60
2023-04-15T09:35:25.678Z,5.90
2023-04-15T09:36:54.627Z,6.10
2023-04-15T09:38:23.647Z,5.70
2023-04-15T09:42:48.707Z,5.20
2023-04-15T09:47:39.681Z,5.00
2023-04-15T09:49:38.081Z,5.20
2023-04-15T09:51:36.017Z,4.70
2023-04-15T09:55:01.396Z,4.90
2023-04-15T09:57:28.434Z,4.90
2023-04-15T09:58:57.771Z,5.10
2023-04-15T10:03:50.875Z,4.70
2023-04-15T10:13:33.762Z,5.20
2023-04-15T10:16:00.911Z,5.00
2023-04-15T10:19:55.037Z,4.60
2023-04-15T10:21:53.026Z,4.60
2023-04-15T10:36:25.871Z,3.60
2023-04-15T10:38:23.528Z,3.60
2023-04-15T10:41:20.850Z,3.30
2023-04-15T10:42:48.561Z,3.70
2023-04-15T10:44:17.621Z,3.60
2023-04-15T10:46:44.698Z,3.80
2023-04-15T10:48:13.632Z,3.60
2023-04-15T10:51:38.650Z,3.30
2023-04-15T10:54:34.802Z,3.50
2023-04-15T10:57:01.846Z,3.40
2023-04-15T10:58:59.911Z,3.40
2023-04-15T11:01:57.054Z,3.10
2023-04-15T11:03:54.177Z,3.10
2023-04-15T11:06:21.266Z,3.30
2023-04-15T11:11:13.702Z,3.80
2023-04-15T11:12:42.676Z,3.90
2023-04-15T11:15:09.756Z,3.40
2023-04-15T11:17:07.834Z,3.30
2023-04-15T11:22:00.798Z,3.50
2023-04-15T11:24:27.832Z,3.00
2023-04-15T11:29:20.252Z,3.80
2023-04-15T11:31:47.706Z,3.50
2023-04-15T11:34:15.396Z,3.20
2023-04-15T11:48:16.206Z,3.40
2023-04-15T11:51:13.090Z,3.40
2023-04-15T11:53:10.783Z,3.00
2023-04-15T11:57:35.199Z,2.90
2023-04-15T12:01:57.807Z,3.00
2023-04-15T12:04:53.872Z,3.50
2023-04-15T12:06:22.781Z,3.20
2023-04-15T12:16:05.530Z,2.40
2023-04-15T12:18:03.632Z,2.70
2023-04-15T12:30:11.823Z,2.90
2023-04-15T12:31:40.808Z,2.40
2023-04-15T12:34:08.118Z,3.00
2023-04-15T12:36:06.202Z,2.60
2023-04-15T12:38:33.278Z,2.70
2023-04-15T12:42:27.442Z,2.60
2023-04-15T12:43:56.481Z,2.70
2023-04-15T12:45:25.436Z,2.60
2023-04-15T12:46:54.590Z,3.00
2023-04-15T12:48:52.467Z,2.90
2023-04-15T12:53:15.596Z,3.00
2023-04-15T12:57:39.901Z,3.10
2023-04-15T12:59:07.700Z,3.10
2023-04-15T13:02:04.454Z,3.00
2023-04-15T13:05:29.612Z,3.10
2023-04-15T13:09:52.611Z,3.10
2023-04-15T13:12:48.725Z,2.70
2023-04-15T13:16:13.962Z,2.80
2023-04-15T13:18:41.583Z,2.60
2023-04-15T13:21:37.012Z,3.20
2023-04-15T13:23:35.071Z,2.80
2023-04-15T13:25:33.010Z,2.60
2023-04-15T13:28:00.004Z,2.40
2023-04-15T13:30:56.017Z,3.00
2023-04-15T13:32:54.034Z,2.80
2023-04-15T13:35:49.950Z,2.10
2023-04-15T13:38:17.485Z,2.80
2023-04-15T13:44:08.168Z,2.50
2023-04-15T13:47:33.645Z,2.40
2023-04-15T13:49:02.587Z,2.50
2023-04-15T13:51:00.965Z,2.60
2023-04-15T13:52:59.119Z,2.70
2023-04-15T13:54:37.511Z,2.90
2023-04-15T13:59:52.408Z,3.50
2023-04-15T14:04:55.731Z,3.00
2023-04-15T14:07:23.251Z,3.20
2023-04-15T14:10:19.320Z,2.80
2023-04-15T14:20:30.871Z,2.80
2023-04-15T14:28:17.540Z,2.60
2023-04-15T14:30:15.561Z,3.40
2023-04-15T14:33:15.988Z,3.20
2023-04-15T14:36:12.033Z,3.00
2023-04-15T14:39:08.569Z,2.90
2023-04-15T14:40:37.233Z,2.60
2023-04-15T14:42:35.211Z,2.50
2023-04-15T14:44:33.294Z,2.70
2023-04-15T14:47:00.364Z,2.60
2023-04-15T14:49:27.419Z,2.60
2023-04-15T14:54:48.532Z,2.30
2023-04-15T14:56:17.786Z,2.60
2023-04-15T14:58:44.815Z,2.50
2023-04-15T15:00:15.941Z,2.60
2023-04-15T15:01:42.922Z,2.80
2023-04-15T15:07:04.361Z,3.60
2023-04-15T15:08:33.327Z,3.30
2023-04-15T15:11:29.486Z,2.60
2023-04-15T15:12:58.546Z,2.90
2023-04-15T15:15:28.837Z,3.60
2023-04-15T15:16:54.397Z,3.20
2023-04-15T15:19:21.470Z,2.90
2023-04-15T15:22:20.138Z,2.20
2023-04-15T15:24:16.422Z,2.60
2023-04-15T15:27:11.756Z,2.00
2023-04-15T15:28:40.743Z,2.20
2023-04-15T15:35:58.391Z,2.90
2023-04-15T15:43:16.263Z,2.30
2023-04-15T15:45:43.298Z,2.40
2023-04-15T15:47:41.430Z,2.20
2023-04-15T15:49:10.396Z,2.50
2023-04-15T15:51:37.844Z,2.40
2023-04-15T15:53:35.826Z,2.50
2023-04-15T16:00:07.859Z,2.70
2023-04-15T16:04:48.671Z,2.60
2023-04-15T16:06:17.580Z,2.30
2023-04-15T16:09:13.642Z,2.80
2023-04-15T16:10:42.714Z,3.10
2023-04-15T16:17:31.798Z,2.70
2023-04-15T16:20:01.060Z,2.50
2023-04-15T16:21:57.813Z,2.90
2023-04-15T16:29:43.143Z,2.50
2023-04-15T16:40:24.582Z,3.00
2023-04-15T16:44:48.237Z,3.00
2023-04-15T16:46:17.204Z,3.40
2023-04-15T16:50:41.730Z,2.80
2023-04-15T16:52:39.720Z,2.70
2023-04-15T16:56:34.049Z,3.20
2023-04-15T17:06:16.782Z,3.30
2023-04-15T17:17:36.026Z,3.10
2023-04-15T17:19:34.079Z,3.20
2023-04-15T17:23:28.353Z,4.10
2023-04-15T17:25:55.479Z,3.30
2023-04-15T17:28:51.812Z,4.20
2023-04-15T17:37:08.186Z,3.70
2023-04-15T17:38:37.218Z,3.80
2023-04-15T17:40:35.376Z,3.10
2023-04-15T17:53:14.236Z,3.50
2023-04-15T17:56:39.801Z,3.80
2023-04-15T17:59:06.849Z,4.00
2023-04-15T18:01:34.012Z,4.30
2023-04-15T18:03:03.086Z,4.10
2023-04-15T18:07:26.572Z,4.60
2023-04-15T18:23:26.516Z,5.10
2023-04-15T18:27:49.699Z,4.60
2023-04-15T18:29:47.743Z,5.20
2023-04-15T18:34:49.392Z,6.60
2023-04-15T18:36:18.375Z,6.70
2023-04-15T18:37:47.661Z,7.00
2023-04-15T18:39:45.648Z,6.60
2023-04-15T18:41:43.724Z,5.80
2023-04-15T18:46:36.673Z,5.60
2023-04-15T18:48:34.793Z,4.80
2023-04-15T18:50:32.933Z,5.00
2023-04-15T18:54:56.508Z,5.20
2023-04-15T18:56:54.559Z,4.80
2023-04-15T19:01:17.776Z,5.20
2023-04-15T19:03:16.155Z,4.90
2023-04-15T19:06:12.033Z,5.40
2023-04-15T19:08:10.497Z,5.70
2023-04-15T19:14:58.534Z,5.40
2023-04-15T19:18:52.869Z,6.20
2023-04-15T19:21:20.280Z,6.10
2023-04-15T19:22:49.370Z,6.60
2023-04-15T19:26:44.156Z,6.60
2023-04-15T19:30:38.845Z,7.60
2023-04-15T19:41:20.450Z,8.40
2023-04-15T19:43:47.629Z,7.40
2023-04-15T19:47:13.407Z,7.10
2023-04-15T19:49:40.221Z,7.80
2023-04-15T19:51:38.328Z,7.90
2023-04-15T19:53:07.374Z,8.20
2023-04-15T19:56:03.666Z,7.80
2023-04-15T19:59:58.844Z,9.20
2023-04-15T20:01:27.961Z,9.50
2023-04-15T20:05:21.949Z,8.50
2023-04-15T20:12:46.036Z,9.70
2023-04-15T20:13:11.935Z,9.60
2023-04-15T20:14:40.912Z,10.30
2023-04-15T20:21:00.171Z,9.80
2023-04-15T20:22:29.163Z,10.40
2023-04-15T20:24:27.166Z,8.80
2023-04-15T20:27:23.892Z,9.70
2023-04-15T20:33:14.099Z,11.30
2023-04-15T20:34:43.109Z,10.50
2023-04-15T20:36:12.524Z,10.20
2023-04-15T20:40:35.696Z,9.50
2023-04-15T20:42:33.707Z,10.00
2023-04-15T20:47:26.824Z,10.50
2023-04-15T20:51:21.130Z,10.80
2023-04-15T20:59:37.012Z,10.80
2023-04-15T21:02:04.184Z,10.40
2023-04-15T21:05:29.812Z,11.30
2023-04-15T21:08:54.980Z,10.30
2023-04-15T21:24:26.307Z,11.00
2023-04-15T21:26:25.109Z,10.40
2023-04-15T21:27:53.645Z,11.10
2023-04-15T21:31:48.178Z,11.00
2023-04-15T21:34:44.188Z,10.30
2023-04-15T21:38:43.513Z,10.90
2023-04-15T21:40:41.589Z,11.40
2023-04-15T21:42:10.482Z,11.40
2023-04-15T21:46:35.448Z,10.40
2023-04-15T21:48:31.620Z,12.90
2023-04-15T21:50:00.880Z,12.70
2023-04-15T21:51:29.830Z,12.10
2023-04-15T21:52:58.851Z,11.90
2023-04-15T22:00:16.487Z,12.70
2023-04-15T22:03:12.802Z,13.60
2023-04-15T22:04:41.660Z,13.00
2023-04-15T22:06:10.850Z,12.40
2023-04-15T22:10:34.037Z,12.90
2023-04-15T22:13:30.085Z,13.40
2023-04-15T22:21:45.524Z,13.80
2023-04-15T22:23:14.522Z,14.10
2023-04-15T22:28:35.828Z,15.40
2023-04-15T22:34:26.256Z,15.70
2023-04-15T22:38:49.363Z,15.90
2023-04-15T22:42:43.712Z,16.70
2023-04-15T22:48:05.554Z,17.40
2023-04-15T22:49:34.577Z,16.40
2023-04-15T22:51:32.642Z,16.30
2023-04-15T22:53:30.928Z,16.60
2023-04-15T22:55:28.875Z,18.50
2023-04-15T22:56:57.971Z,17.00
2023-04-15T22:59:54.049Z,17.50
2023-04-15T23:01:23.059Z,18.20
2023-04-15T23:14:29.268Z,18.70
2023-04-15T23:16:56.420Z,18.60
2023-04-15T23:20:50.529Z,20.10
2023-04-15T23:22:48.594Z,19.70
2023-04-15T23:27:40.875Z,18.60
2023-04-15T23:33:02.296Z,19.60
2023-04-15T23:39:22.807Z,19.40
2023-04-15T23:52:33.540Z,20.10
2023-04-15T23:57:54.771Z,20.80
2023-04-15T23:59:23.766Z,22.00
